Time;durP1;ratioP1;P1;durP2;ratioP2;P2;SDS_P1;SDS_P2;PMS_P1;PMS_P2;Temp;Humidity;BMP_temperature;BMP_pressure;BME280_temperature;BME280_humidity;BME280_pressure;Samples;Min_cycle;Max_cycle;Signal;HPM_P1;HPM_P2
2022/12/20 00:00:46;;;;;;;3.85;1.92;;;;;;;-142.75;100.00;77275.06;5002797;28;20031;-66
2022/12/20 00:03:12;;;;;;;4.72;2.30;;;;;;;-142.75;100.00;77271.13;5020688;28;20053;-67
2022/12/20 00:05:39;;;;;;;3.83;2.17;;;;;;;-142.75;100.00;77277.03;5011211;28;20345;-68
2022/12/20 00:08:06;;;;;;;4.90;2.60;;;;;;;-142.75;100.00;77267.19;5012484;28;20135;-67
2022/12/20 00:10:35;;;;;;;5.15;2.55;;;;;;;-142.75;100.00;77263.25;5011736;28;20016;-67
2022/12/20 00:13:01;;;;;;;4.50;2.28;;;;;;;-142.75;100.00;77249.47;5012721;28;20032;-67
2022/12/20 00:15:27;;;;;;;5.03;2.50;;;;;;;-142.75;100.00;77247.50;5014016;28;20294;-65
2022/12/20 00:17:52;;;;;;;4.75;1.85;;;;;;;-142.75;100.00;77259.31;5006491;28;20371;-66
2022/12/20 00:20:18;;;;;;;4.43;2.30;;;;;;;-142.75;100.00;77249.47;5013133;28;20028;-66
2022/12/20 00:22:44;;;;;;;8.00;2.13;;;;;;;-142.75;100.00;77241.59;5016319;28;20356;-67
2022/12/20 00:25:10;;;;;;;6.38;2.33;;;;;;;-142.75;100.00;77243.56;5011758;28;20102;-66
2022/12/20 00:27:35;;;;;;;4.60;2.30;;;;;;;-142.75;100.00;77245.53;5005453;28;20243;-66
2022/12/20 00:30:01;;;;;;;6.78;2.30;;;;;;;-142.75;100.00;77237.66;5009787;28;20089;-66
2022/12/20 00:32:26;;;;;;;4.72;2.25;;;;;;;-142.75;100.00;77263.25;5008994;28;20415;-65
2022/12/20 00:34:52;;;;;;;4.05;1.95;;;;;;;-142.75;100.00;77247.50;5021818;28;20028;-65
2022/12/20 00:37:18;;;;;;;5.93;2.38;;;;;;;-142.75;100.00;77275.06;5012102;28;20453;-66
2022/12/20 00:39:43;;;;;;;7.43;2.88;;;;;;;-142.75;100.00;77263.25;5006429;28;20313;-65
2022/12/20 00:42:08;;;;;;;5.88;2.65;;;;;;;-142.75;100.00;77263.25;5015005;28;20185;-66
2022/12/20 00:44:34;;;;;;;7.82;3.45;;;;;;;-142.75;100.00;77269.16;5018388;28;20031;-65
2022/12/20 00:47:00;;;;;;;7.50;2.70;;;;;;;-142.75;100.00;77282.94;5010167;28;20040;-65
2022/12/20 00:49:25;;;;;;;9.90;2.75;;;;;;;-142.75;100.00;77288.84;5014604;28;20424;-66
2022/12/20 00:51:51;;;;;;;5.57;3.15;;;;;;;-142.75;100.00;77288.84;5015301;28;20514;-66
2022/12/20 00:54:16;;;;;;;5.88;2.78;;;;;;;-142.75;100.00;77302.63;5009026;28;20361;-65
2022/12/20 00:56:42;;;;;;;4.10;2.38;;;;;;;-142.75;100.00;77306.56;4987406;28;20342;-66
2022/12/20 00:59:07;;;;;;;6.15;2.65;;;;;;;-142.75;100.00;77306.56;5001711;28;20096;-66
2022/12/20 01:01:36;;;;;;;5.75;2.42;;;;;;;-142.75;100.00;77322.31;5012918;28;20319;-65
2022/12/20 01:04:02;;;;;;;5.25;3.10;;;;;;;-142.75;100.00;77310.50;5006121;28;20068;-66
2022/12/20 01:06:28;;;;;;;9.18;3.40;;;;;;;-142.75;100.00;77312.47;5003514;28;20137;-66
2022/12/20 01:08:55;;;;;;;8.18;3.33;;;;;;;-142.75;100.00;77316.41;5014536;28;20027;-65
2022/12/20 01:11:23;;;;;;;4.88;2.72;;;;;;;-142.75;100.00;77308.53;5023691;28;20075;-65
2022/12/20 01:13:52;;;;;;;9.82;3.53;;;;;;;-142.75;100.00;77302.63;5011912;28;20031;-66
2022/12/20 01:16:26;;;;;;;6.38;2.95;;;;;;;-142.75;100.00;77314.44;5016334;28;20059;-66
2022/12/20 01:18:52;;;;;;;5.68;2.80;;;;;;;-142.75;100.00;77308.53;5008871;28;20054;-65
2022/12/20 01:21:20;;;;;;;12.13;3.58;;;;;;;-142.75;100.00;77288.84;5012333;28;20024;-65
2022/12/20 01:23:45;;;;;;;5.18;2.50;;;;;;;-142.75;100.00;77271.13;5015697;28;20082;-66
2022/12/20 01:26:13;;;;;;;5.95;2.72;;;;;;;-142.75;100.00;77255.38;5010996;28;20358;-66
2022/12/20 01:28:41;;;;;;;5.10;2.72;;;;;;;-142.75;100.00;77269.16;5011034;28;20017;-64
2022/12/20 01:31:11;;;;;;;4.57;2.50;;;;;;;-142.75;100.00;77247.50;5013957;28;20595;-64
2022/12/20 01:33:37;;;;;;;6.05;2.45;;;;;;;-142.75;100.00;77249.47;5007390;28;20058;-66
2022/12/20 01:36:06;;;;;;;5.22;2.83;;;;;;;-142.75;100.00;77253.41;5014560;28;20404;-67
2022/12/20 01:38:33;;;;;;;7.97;3.08;;;;;;;-142.75;100.00;77243.56;4988568;28;20051;-66
2022/12/20 01:40:58;;;;;;;6.93;2.20;;;;;;;-142.75;100.00;77251.44;5007364;28;20043;-64
2022/12/20 01:43:43;;;;;;;6.00;2.40;;;;;;;-142.75;100.00;77233.72;5013731;28;20218;-66
2022/12/20 01:46:09;;;;;;;6.15;2.85;;;;;;;-142.75;100.00;77239.63;5018508;28;20538;-66
2022/12/20 01:48:35;;;;;;;7.72;2.67;;;;;;;-142.75;100.00;77223.88;5015763;28;20094;-65
2022/12/20 01:51:00;;;;;;;7.28;2.80;;;;;;;-142.75;100.00;77231.75;5017470;28;20337;-65
2022/12/20 01:53:26;;;;;;;4.28;2.67;;;;;;;-142.75;100.00;77235.69;5017505;28;20024;-66
2022/12/20 01:55:52;;;;;;;7.03;2.83;;;;;;;-142.75;100.00;77229.78;4999790;28;20335;-66
2022/12/20 01:58:19;;;;;;;7.18;2.63;;;;;;;-142.75;100.00;77225.84;5022351;28;20621;-66
2022/12/20 02:00:45;;;;;;;6.70;2.95;;;;;;;-142.75;100.00;77231.75;5002972;28;20127;-65
2022/12/20 02:03:12;;;;;;;6.80;2.45;;;;;;;-142.75;100.00;77227.81;5025702;22;20029;-64
2022/12/20 02:05:43;;;;;;;6.43;2.38;;;;;;;-142.75;100.00;77243.56;5033139;28;20128;-64
2022/12/20 02:08:10;;;;;;;4.53;2.58;;;;;;;-142.75;100.00;77239.63;5037347;28;20074;-65
2022/12/20 02:10:47;;;;;;;4.43;2.50;;;;;;;-142.75;100.00;77233.72;5038187;28;20047;-65
2022/12/20 02:13:25;;;;;;;7.90;3.03;;;;;;;-142.75;100.00;77231.75;5033116;28;20123;-65
2022/12/20 02:15:55;;;;;;;6.72;2.70;;;;;;;-142.75;100.00;77229.78;5036089;28;20532;-64
2022/12/20 02:18:48;;;;;;;6.20;2.85;;;;;;;-142.75;100.00;77243.56;5037354;28;20869;-64
2022/12/20 02:21:33;;;;;;;5.75;2.90;;;;;;;-142.75;100.00;77227.81;5006067;28;20587;-64
2022/12/20 02:24:17;;;;;;;8.80;2.72;;;;;;;-142.75;100.00;77221.91;5016359;28;20116;-64
2022/12/20 02:27:07;;;;;;;4.57;2.20;;;;;;;-142.75;100.00;77223.88;5029627;28;20541;-64
2022/12/20 02:29:51;;;;;;;4.82;2.10;;;;;;;-142.75;100.00;77225.84;5033697;28;20032;-65
2022/12/20 02:32:26;;;;;;;6.13;2.38;;;;;;;-142.75;100.00;77223.88;5029257;28;20062;-64
2022/12/20 02:34:52;;;;;;;7.03;2.30;;;;;;;-142.75;100.00;77214.03;5025892;28;20059;-65
2022/12/20 02:37:17;;;;;;;5.30;3.00;;;;;;;-142.75;100.00;77216.00;5033871;28;20331;-66
2022/12/20 02:39:45;;;;;;;5.28;2.13;;;;;;;-142.75;100.00;77208.13;5024170;28;20340;-65
2022/12/20 02:42:14;;;;;;;3.97;2.45;;;;;;;-142.75;100.00;77194.34;5026558;28;20028;-65
2022/12/20 02:47:58;;;;;;;6.07;2.78;;;;;;;-142.75;100.00;77180.56;5030893;28;20140;-64
2022/12/20 02:50:35;;;;;;;6.22;2.58;;;;;;;-142.75;100.00;77172.69;5030300;28;20020;-64
2022/12/20 02:53:01;;;;;;;4.93;2.55;;;;;;;-142.75;100.00;77158.91;5041753;28;20019;-64
2022/12/20 02:55:32;;;;;;;;;;;;;;;-142.75;100.00;77174.66;5039899;28;20035;-65
2022/12/20 02:58:11;;;;;;;5.97;2.85;;;;;;;-142.75;100.00;77170.72;5032891;28;19938;-64
2022/12/20 03:00:41;;;;;;;5.25;2.30;;;;;;;-142.75;100.00;77170.72;5028001;28;20248;-64
2022/12/20 03:03:23;;;;;;;3.88;2.20;;;;;;;-142.75;100.00;77184.50;5032178;28;20286;-64
2022/12/20 03:05:53;;;;;;;5.47;2.08;;;;;;;-142.75;100.00;77162.84;5045478;28;20031;-63
2022/12/20 03:08:21;;;;;;;6.53;2.17;;;;;;;-142.75;100.00;77164.81;5019476;28;20016;-63
2022/12/20 03:10:46;;;;;;;5.78;2.35;;;;;;;-142.75;100.00;77166.78;5037672;28;20054;-64
2022/12/20 03:13:12;;;;;;;6.18;2.38;;;;;;;-142.75;100.00;77149.06;5031697;28;20336;-64
2022/12/20 03:15:38;;;;;;;6.18;2.10;;;;;;;-142.75;100.00;77151.03;5027758;28;20340;-64
2022/12/20 03:18:03;;;;;;;4.93;2.60;;;;;;;-142.75;100.00;77158.91;5033568;28;20305;-64
2022/12/20 03:20:29;;;;;;;5.97;2.25;;;;;;;-142.75;100.00;77156.94;5016409;28;20577;-64
2022/12/20 03:22:54;;;;;;;5.10;2.17;;;;;;;-142.75;100.00;77149.06;5038394;28;20441;-64
2022/12/20 03:25:20;;;;;;;7.15;2.28;;;;;;;-142.75;100.00;77147.09;5039022;28;20360;-63
2022/12/20 03:27:46;;;;;;;4.40;2.22;;;;;;;-142.75;100.00;77164.81;5037312;28;20181;-63
2022/12/20 03:30:12;;;;;;;5.47;2.20;;;;;;;-142.75;100.00;77145.13;5040226;28;20031;-65
2022/12/20 03:32:38;;;;;;;;;;;;;;;-142.75;100.00;77131.34;5027507;28;20086;-64
2022/12/20 03:35:04;;;;;;;4.80;2.10;;;;;;;-142.75;100.00;77135.28;5029938;28;20309;-63
2022/12/20 03:37:29;;;;;;;9.52;2.30;;;;;;;-142.75;100.00;77133.31;5043465;28;20266;-63
2022/12/20 03:39:55;;;;;;;4.32;2.00;;;;;;;-142.75;100.00;77119.53;5034421;28;20356;-64
2022/12/20 03:42:20;;;;;;;3.60;2.40;;;;;;;-142.75;100.00;77115.59;5042640;28;20325;-65
2022/12/20 03:44:46;;;;;;;6.60;2.30;;;;;;;-142.75;100.00;77103.78;5025874;28;20346;-66
2022/12/20 03:47:11;;;;;;;10.27;2.22;;;;;;;-142.75;100.00;77113.63;5029561;28;20374;-65
2022/12/20 03:49:37;;;;;;;7.35;2.50;;;;;;;-142.75;100.00;77119.53;5035515;28;20331;-67
2022/12/20 03:52:02;;;;;;;6.63;1.88;;;;;;;-142.75;100.00;77121.50;5032447;28;20328;-65
2022/12/20 03:54:28;;;;;;;5.43;2.13;;;;;;;-142.75;100.00;77125.44;5022616;28;20374;-66
2022/12/20 03:56:53;;;;;;;7.35;2.13;;;;;;;-142.75;100.00;77129.38;5023349;28;20300;-65
2022/12/20 03:59:19;;;;;;;4.32;2.28;;;;;;;-142.75;100.00;77117.56;5036489;28;20314;-65
2022/12/20 04:01:45;;;;;;;4.07;2.17;;;;;;;-142.75;100.00;77111.66;5022639;28;20309;-65
2022/12/20 04:04:12;;;;;;;5.60;1.77;;;;;;;-142.75;100.00;77105.75;5036263;28;20074;-66
2022/12/20 04:06:38;;;;;;;4.25;1.85;;;;;;;-142.75;100.00;77101.81;5042131;28;20539;-65
2022/12/20 04:09:04;;;;;;;5.90;2.00;;;;;;;-142.75;100.00;77080.16;5035555;28;20063;-66
2022/12/20 04:11:29;;;;;;;9.00;2.20;;;;;;;-142.75;100.00;77082.13;5033230;28;20127;-64
2022/12/20 04:13:55;;;;;;;6.45;1.77;;;;;;;-142.75;100.00;77086.06;5029388;28;20352;-64
2022/12/20 04:16:24;;;;;;;5.30;2.67;;;;;;;-142.75;100.00;77064.41;5010080;28;20434;-66
2022/12/20 04:18:50;;;;;;;8.82;2.30;;;;;;;-142.75;100.00;77080.16;5033203;28;20086;-62
2022/12/20 04:21:22;;;;;;;5.82;2.20;;;;;;;-142.75;100.00;77074.25;5022781;28;20130;-64
2022/12/20 04:23:47;;;;;;;5.03;2.35;;;;;;;-142.75;100.00;77074.25;5043837;28;20068;-63
2022/12/20 04:26:13;;;;;;;8.82;2.47;;;;;;;-142.75;100.00;77088.03;5023322;28;20459;-63
2022/12/20 04:28:38;;;;;;;6.13;2.72;;;;;;;-142.75;100.00;77105.75;5013674;28;20242;-63
2022/12/20 04:31:04;;;;;;;7.13;2.55;;;;;;;-142.75;100.00;77113.63;5032863;28;20070;-64
2022/12/20 04:33:29;;;;;;;4.43;2.63;;;;;;;-142.75;100.00;77119.53;5035508;28;20308;-63
2022/12/20 04:35:55;;;;;;;6.65;3.25;;;;;;;-142.75;100.00;77133.31;5034391;28;20352;-64
2022/12/20 04:38:21;;;;;;;10.35;2.92;;;;;;;-142.75;100.00;77133.31;5027944;28;20042;-63
2022/12/20 04:40:49;;;;;;;;;;;;;;;-142.75;100.00;77129.38;5035836;28;20036;-62
2022/12/20 04:43:16;;;;;;;7.57;2.63;;;;;;;-142.75;100.00;77119.53;5022178;28;20436;-64
2022/12/20 04:45:43;;;;;;;6.22;2.90;;;;;;;-142.75;100.00;77109.69;5034463;28;20134;-62
2022/12/20 04:48:08;;;;;;;7.28;2.75;;;;;;;-142.75;100.00;77101.81;5026413;28;20060;-63
2022/12/20 04:50:34;;;;;;;8.20;3.10;;;;;;;-142.75;100.00;77099.84;5033530;28;20348;-63
2022/12/20 04:55:44;;;;;;;4.85;2.63;;;;;;;-142.75;100.00;77101.81;5029096;28;20192;-64
2022/12/20 04:58:09;;;;;;;6.28;2.72;;;;;;;-142.75;100.00;77095.91;5025611;28;20394;-64
2022/12/20 05:00:35;;;;;;;4.85;2.97;;;;;;;-142.75;100.00;77097.88;5033091;28;20328;-63
2022/12/20 05:03:00;;;;;;;7.10;3.42;;;;;;;-142.75;100.00;77084.09;5022203;28;20247;-63
2022/12/20 05:05:26;;;;;;;6.20;2.60;;;;;;;-142.75;100.00;77080.16;5013673;28;20348;-62
2022/12/20 05:07:53;;;;;;;8.40;2.78;;;;;;;-142.75;100.00;77062.44;5031371;28;20016;-62
2022/12/20 05:10:18;;;;;;;3.45;2.15;;;;;;;-142.75;100.00;77058.50;5034610;28;20552;-64
2022/12/20 05:12:44;;;;;;;5.65;2.30;;;;;;;-142.75;100.00;77046.69;5013028;28;20024;-65
2022/12/20 05:15:10;;;;;;;4.60;1.98;;;;;;;-142.75;100.00;77054.56;5011743;28;20478;-63
2022/12/20 05:17:36;;;;;;;3.33;2.20;;;;;;;-142.75;100.00;77044.72;5029574;28;20155;-63
2022/12/20 05:20:02;;;;;;;4.00;1.90;;;;;;;-142.75;100.00;77038.81;5041972;28;20348;-64
2022/12/20 05:27:57;;;;;;;6.15;3.15;;;;;;;-142.75;100.00;77007.31;5031283;28;20622;-60
2022/12/20 05:30:24;;;;;;;6.53;3.08;;;;;;;-142.75;100.00;77021.09;5037286;28;20560;-63
2022/12/20 05:32:49;;;;;;;4.78;2.63;;;;;;;-142.75;100.00;77034.88;5018648;28;20053;-59
2022/12/20 05:35:15;;;;;;;5.47;2.30;;;;;;;-142.75;100.00;77034.88;5045177;28;20343;-64
2022/12/20 05:37:41;;;;;;;6.43;2.97;;;;;;;-142.75;100.00;77011.25;5039979;28;20020;-63
2022/12/20 05:40:07;;;;;;;5.18;2.70;;;;;;;-142.75;100.00;77009.28;5045956;28;20306;-63
2022/12/20 05:42:32;;;;;;;;;;;;;;;-142.75;100.00;76999.44;5018260;28;20020;-64
2022/12/20 05:44:59;;;;;;;7.13;2.75;;;;;;;-142.75;100.00;77017.16;5036063;28;20228;-63
2022/12/20 05:47:25;;;;;;;9.40;2.97;;;;;;;-142.75;100.00;77009.28;5029867;28;20592;-63
2022/12/20 05:49:50;;;;;;;8.15;2.33;;;;;;;-142.75;100.00;76983.69;5040938;28;20024;-63
2022/12/20 05:52:16;;;;;;;3.95;1.98;;;;;;;-142.75;100.00;76975.81;5025684;28;20496;-65
2022/12/20 05:54:41;;;;;;;6.90;2.65;;;;;;;-142.75;100.00;76977.78;5037971;28;20447;-63
2022/12/20 05:57:07;;;;;;;5.85;2.33;;;;;;;-142.75;100.00;76987.63;5029019;28;20315;-64
2022/12/20 05:59:32;;;;;;;5.40;2.40;;;;;;;-142.75;100.00;76995.50;5023364;28;20346;-64
2022/12/20 06:01:58;;;;;;;6.88;2.70;;;;;;;-142.75;100.00;76983.69;5037057;28;20332;-64
2022/12/20 06:04:24;;;;;;;6.85;2.33;;;;;;;-142.75;100.00;76991.56;5035776;28;20297;-64
2022/12/20 06:06:50;;;;;;;5.25;2.30;;;;;;;-142.75;100.00;76991.56;5036895;28;20247;-63
2022/12/20 06:09:15;;;;;;;5.95;2.38;;;;;;;-142.75;100.00;76981.72;5020080;28;20337;-63
2022/12/20 06:11:41;;;;;;;5.10;2.72;;;;;;;-142.75;100.00;76971.88;5010183;28;20055;-64
2022/12/20 06:14:06;;;;;;;5.65;2.30;;;;;;;-142.75;100.00;76971.88;5024666;28;20039;-64
2022/12/20 06:16:32;;;;;;;8.82;2.25;;;;;;;-142.75;100.00;76964.00;5024792;28;20301;-64
2022/12/20 06:18:57;;;;;;;5.10;2.15;;;;;;;-142.75;100.00;76950.22;5025353;28;20293;-64
2022/12/20 06:21:23;;;;;;;6.10;2.13;;;;;;;-142.75;100.00;76958.09;5024579;28;20313;-62
2022/12/20 06:23:49;;;;;;;4.55;2.10;;;;;;;-142.75;100.00;76962.03;5038205;28;20258;-63
2022/12/20 06:26:14;;;;;;;6.68;2.05;;;;;;;-142.75;100.00;76960.06;5027973;28;20341;-65
2022/12/20 06:28:41;;;;;;;3.42;1.95;;;;;;;-142.75;100.00;76956.13;5034969;28;20024;-63
2022/12/20 06:31:09;;;;;;;7.55;2.28;;;;;;;-142.75;100.00;76960.06;5036821;28;20069;-63
2022/12/20 06:33:36;;;;;;;4.53;2.05;;;;;;;-142.75;100.00;76952.19;5022368;28;20059;-64
2022/12/20 06:36:01;;;;;;;;;;;;;;;-142.75;100.00;76950.22;5023113;28;20840;-65
2022/12/20 06:38:27;;;;;;;4.90;1.63;;;;;;;-142.75;100.00;76952.19;5005905;28;19916;-66
2022/12/20 06:40:52;;;;;;;4.93;1.80;;;;;;;-142.75;100.00;76950.22;5032473;28;20055;-63
2022/12/20 06:43:18;;;;;;;5.53;1.63;;;;;;;-142.75;100.00;76946.28;5022017;28;20054;-64
2022/12/20 06:45:43;;;;;;;3.88;1.67;;;;;;;-142.75;100.00;76944.31;5037599;28;20298;-63
2022/12/20 06:48:09;;;;;;;5.50;1.98;;;;;;;-142.75;100.00;76950.22;5008606;28;20024;-60
2022/12/20 06:50:35;;;;;;;3.58;2.05;;;;;;;-142.75;100.00;76932.50;5036086;28;20100;-61
2022/12/20 06:53:00;;;;;;;2.50;1.23;;;;;;;-142.75;100.00;76924.63;5026917;28;20043;-64
2022/12/20 06:55:26;;;;;;;5.82;1.95;;;;;;;-142.75;100.00;76920.69;5015521;28;20468;-63
2022/12/20 06:57:51;;;;;;;5.72;1.33;;;;;;;-142.75;100.00;76932.50;5032708;28;20055;-63
2022/12/20 07:00:17;;;;;;;4.40;1.65;;;;;;;-142.75;100.00;76934.47;5042499;28;20201;-63
2022/12/20 07:02:44;;;;;;;;;;;;;;;-142.75;100.00;76916.75;5031433;28;20895;-64
2022/12/20 07:05:09;;;;;;;9.15;1.98;;;;;;;-142.75;100.00;76924.63;5033984;28;20000;-63
2022/12/20 07:07:35;;;;;;;5.30;1.85;;;;;;;-142.75;100.00;76928.56;5028027;28;20282;-63
2022/12/20 07:10:01;;;;;;;6.03;2.10;;;;;;;-142.75;100.00;76940.38;5027613;28;20047;-65
2022/12/20 07:12:26;;;;;;;3.47;1.80;;;;;;;-142.75;100.00;76948.25;5023826;28;20289;-63
2022/12/20 07:14:52;;;;;;;4.22;1.90;;;;;;;-142.75;100.00;76948.25;5029182;28;20489;-63
2022/12/20 07:17:17;;;;;;;2.88;1.30;;;;;;;-142.75;100.00;76946.28;5025296;28;20209;-63
2022/12/20 07:19:43;;;;;;;4.55;1.65;;;;;;;-142.75;100.00;76956.13;5030472;28;20066;-63
2022/12/20 07:22:08;;;;;;;5.53;1.63;;;;;;;-142.75;100.00;76954.16;5031406;28;20019;-63
2022/12/20 07:24:34;;;;;;;4.60;2.20;;;;;;;-142.75;100.00;76967.94;5029039;28;20026;-64
2022/12/20 07:27:00;;;;;;;3.75;1.83;;;;;;;-142.75;100.00;76971.88;5028595;28;20347;-62
2022/12/20 07:29:26;;;;;;;3.92;1.45;;;;;;;-142.75;100.00;76975.81;5035405;28;20032;-62
2022/12/20 07:31:52;;;;;;;3.88;1.35;;;;;;;-142.75;100.00;76989.59;5025949;28;20464;-62
2022/12/20 07:34:18;;;;;;;3.85;1.92;;;;;;;-142.75;100.00;76987.63;5035338;28;20032;-64
2022/12/20 07:36:43;;;;;;;3.40;1.40;;;;;;;-142.75;100.00;76985.66;5042444;28;20028;-63
2022/12/20 07:39:10;;;;;;;5.03;2.70;;;;;;;-142.75;100.00;76995.50;5021278;28;20340;-64
2022/12/20 07:41:35;;;;;;;3.22;1.73;;;;;;;-142.75;100.00;77009.28;5022776;28;20131;-64
2022/12/20 07:44:01;;;;;;;5.57;1.67;;;;;;;-142.75;100.00;77007.31;5022571;28;20332;-62
2022/12/20 07:46:27;;;;;;;3.95;1.90;;;;;;;-142.75;100.00;77023.06;5031984;28;20038;-62
2022/12/20 07:48:52;;;;;;;7.28;2.20;;;;;;;-142.75;100.00;77032.91;5029641;28;20030;-62
2022/12/20 07:51:22;;;;;;;6.30;2.15;;;;;;;-142.75;100.00;77032.91;5037407;28;20024;-66
2022/12/20 07:53:53;;;;;;;3.33;1.77;;;;;;;-142.75;100.00;77050.63;5033577;28;20036;-64
2022/12/20 07:56:21;;;;;;;6.03;2.30;;;;;;;-142.75;100.00;77068.34;5035552;28;20788;-64
2022/12/20 07:58:49;;;;;;;7.65;2.85;;;;;;;-142.75;100.00;77068.34;5021014;28;20024;-64
2022/12/20 08:01:15;;;;;;;4.10;2.03;;;;;;;-142.75;100.00;77082.13;5036599;28;20189;-63
2022/12/20 08:06:25;;;;;;;11.63;5.85;;;;;;;-142.75;100.00;77082.13;5000856;28;20269;-65
2022/12/20 08:08:56;;;;;;;8.35;2.22;;;;;;;-142.75;100.00;77070.31;4984314;28;20541;-66
2022/12/20 08:11:23;;;;;;;3.50;1.75;;;;;;;-142.75;100.00;77074.25;4985472;28;20028;-66
2022/12/20 08:13:50;;;;;;;6.43;2.42;;;;;;;-142.75;100.00;77058.50;4994510;28;20025;-66
2022/12/20 08:16:16;;;;;;;5.00;2.08;;;;;;;-142.75;100.00;77054.56;4965301;28;20128;-66
2022/12/20 08:18:41;;;;;;;5.05;1.80;;;;;;;-142.75;100.00;77052.59;4981281;28;20164;-66
2022/12/20 08:21:07;;;;;;;6.70;1.63;;;;;;;-142.75;100.00;77038.81;4982117;28;20031;-66
2022/12/20 08:23:33;;;;;;;4.18;1.95;;;;;;;-142.75;100.00;77023.06;4982496;28;20414;-67
2022/12/20 08:25:59;;;;;;;;;;;;;;;-142.75;100.00;76999.44;4982657;28;20020;-66
2022/12/20 08:28:25;;;;;;;4.82;2.35;;;;;;;-142.75;100.00;77007.31;4982321;28;19917;-66
2022/12/20 08:30:50;;;;;;;7.00;1.77;;;;;;;-142.75;100.00;77007.31;4964687;28;20335;-66
2022/12/20 08:33:16;;;;;;;6.82;2.00;;;;;;;-142.75;100.00;76993.53;4982381;28;20024;-67
2022/12/20 08:35:42;;;;;;;7.88;2.03;;;;;;;-142.75;100.00;77007.31;4982536;28;20028;-66
2022/12/20 08:38:07;;;;;;;4.32;1.95;;;;;;;-142.75;100.00;77023.06;4982982;28;20340;-66
2022/12/20 08:40:33;;;;;;;4.80;2.35;;;;;;;-142.75;100.00;77044.72;4984405;28;20319;-66
2022/12/20 08:42:58;;;;;;;6.70;2.20;;;;;;;-142.75;100.00;77054.56;4982432;28;20308;-65
2022/12/20 08:45:24;;;;;;;3.08;1.70;;;;;;;-142.75;100.00;77066.38;4983181;28;20190;-66
2022/12/20 08:47:49;;;;;;;6.97;2.40;;;;;;;-142.75;100.00;77088.03;4984397;28;20304;-66
2022/12/20 08:50:15;;;;;;;5.43;2.00;;;;;;;-142.75;100.00;77097.88;4963482;28;20048;-66
2022/12/20 08:52:40;;;;;;;7.03;2.47;;;;;;;-142.75;100.00;77097.88;4982959;28;20021;-66
2022/12/20 08:55:06;;;;;;;7.22;2.40;;;;;;;-142.75;100.00;77103.78;4984296;28;20056;-66
2022/12/20 08:57:32;;;;;;;3.67;1.90;;;;;;;-142.75;100.00;77113.63;4981674;28;20194;-66
2022/12/20 08:59:57;;;;;;;4.22;1.92;;;;;;;-142.75;100.00;77115.59;4982017;28;20358;-65
2022/12/20 09:02:23;;;;;;;7.75;2.25;;;;;;;-142.75;100.00;77117.56;4984613;28;20020;-64
2022/12/20 09:04:48;;;;;;;6.13;2.45;;;;;;;-142.75;100.00;77123.47;4964027;28;20391;-66
2022/12/20 09:07:14;;;;;;;5.60;2.58;;;;;;;-142.75;100.00;77113.63;4966251;28;20473;-67
2022/12/20 09:09:39;;;;;;;6.40;2.22;;;;;;;-142.75;100.00;77115.59;4980762;28;20421;-66
2022/12/20 09:12:06;;;;;;;6.43;3.00;;;;;;;-142.75;100.00;77117.56;5013790;28;20027;-65
2022/12/20 09:14:32;;;;;;;6.53;2.70;;;;;;;-142.75;100.00;77131.34;5032374;28;20120;-65
2022/12/20 09:16:57;;;;;;;7.25;5.22;;;;;;;-142.75;100.00;77145.13;5036859;28;20705;-65
2022/12/20 09:19:23;;;;;;;8.73;3.80;;;;;;;-142.75;100.00;77139.22;5039592;28;20071;-65
2022/12/20 09:21:48;;;;;;;12.68;4.78;;;;;;;-142.75;100.00;77145.13;5040139;28;20021;-65
2022/12/20 09:24:13;;;;;;;9.80;4.07;;;;;;;-142.75;100.00;77154.97;5039753;28;20021;-65
2022/12/20 09:26:39;;;;;;;10.93;5.65;;;;;;;-142.75;100.00;77156.94;5034228;28;20551;-66
2022/12/20 09:29:05;;;;;;;14.88;6.53;;;;;;;-142.75;100.00;77141.19;5039501;28;20032;-65
2022/12/20 09:31:30;;;;;;;11.68;6.28;;;;;;;-142.75;100.00;77145.13;5013487;28;20029;-65
2022/12/20 09:33:57;;;;;;;13.65;4.38;;;;;;;-142.75;100.00;77143.16;5040141;28;20400;-65
2022/12/20 09:36:24;;;;;;;7.70;4.35;;;;;;;-142.75;100.00;77135.28;5028451;28;20025;-65
2022/12/20 09:38:51;;;;;;;9.57;4.95;;;;;;;-142.75;100.00;77129.38;5030948;28;20041;-65
2022/12/20 09:41:30;;;;;;;11.52;3.90;;;;;;;-142.75;100.00;77129.38;5033394;28;21711;-65
2022/12/20 09:43:57;;;;;;;12.32;5.68;;;;;;;-142.75;100.00;77135.28;5036799;28;20048;-65
2022/12/20 09:46:24;;;;;;;6.82;3.97;;;;;;;-142.75;100.00;77125.44;5038959;28;20812;-66
2022/12/20 09:48:50;;;;;;;9.02;4.90;;;;;;;-142.75;100.00;77137.25;5035459;28;20029;-65
2022/12/20 09:51:37;;;;;;;6.88;3.08;;;;;;;-142.75;100.00;77137.25;5038432;28;20032;-65
2022/12/20 09:54:11;;;;;;;6.47;3.53;;;;;;;-142.75;100.00;77121.50;5032915;28;20546;-67
2022/12/20 09:56:39;;;;;;;6.95;3.70;;;;;;;-142.75;100.00;77121.50;5029551;28;20064;-66
2022/12/20 09:59:14;;;;;;;10.80;3.33;;;;;;;-142.75;100.00;77117.56;5032764;28;20127;-66
2022/12/20 10:01:45;;;;;;;6.25;3.30;;;;;;;-142.75;100.00;77105.75;5033544;28;20055;-66
2022/12/20 10:04:21;;;;;;;7.30;3.35;;;;;;;-142.75;100.00;77115.59;5036812;28;20040;-66
2022/12/20 10:07:21;;;;;;;6.72;3.30;;;;;;;-142.75;100.00;77117.56;5035103;28;20041;-66
2022/12/20 10:10:13;;;;;;;5.15;2.83;;;;;;;-142.75;100.00;77113.63;5035333;28;20091;-66
2022/12/20 10:12:55;;;;;;;9.98;3.53;;;;;;;-142.75;100.00;77113.63;5043582;28;20506;-64
2022/12/20 10:15:30;;;;;;;6.68;2.92;;;;;;;-142.75;100.00;77105.75;5024784;28;20072;-65
2022/12/20 10:18:04;;;;;;;7.32;3.60;;;;;;;-142.75;100.00;77103.78;5042943;28;20067;-65
2022/12/20 10:20:39;;;;;;;6.68;3.22;;;;;;;-142.75;100.00;77117.56;5043129;28;20041;-66
2022/12/20 10:23:22;;;;;;;8.75;3.72;;;;;;;-142.75;100.00;77105.75;5043286;28;20033;-65
2022/12/20 10:25:50;;;;;;;7.70;3.50;;;;;;;-142.75;100.00;77097.88;5042609;28;20039;-64
2022/12/20 10:28:16;;;;;;;7.85;3.60;;;;;;;-142.75;100.00;77115.59;5042290;28;20497;-66
2022/12/20 10:30:42;;;;;;;7.50;3.53;;;;;;;-142.75;100.00;77111.66;5043150;28;20021;-66
2022/12/20 10:33:19;;;;;;;6.80;3.58;;;;;;;-142.75;100.00;77095.91;5042829;28;20056;-66
2022/12/20 10:35:45;;;;;;;10.32;3.85;;;;;;;-142.75;100.00;77105.75;5042106;28;20032;-67
2022/12/20 10:38:12;;;;;;;9.25;3.20;;;;;;;-142.75;100.00;77107.72;5042135;28;20025;-66
2022/12/20 10:40:45;;;;;;;7.93;3.53;;;;;;;-142.75;100.00;77101.81;5043056;28;20104;-65
2022/12/20 10:43:22;;;;;;;10.20;3.72;;;;;;;-142.75;100.00;77090.00;5042684;28;20087;-65
2022/12/20 10:46:05;;;;;;;7.65;3.28;;;;;;;-142.75;100.00;77084.09;5043073;28;20111;-66
2022/12/20 10:48:38;;;;;;;10.73;4.38;;;;;;;-142.75;100.00;77086.06;5042013;28;20040;-65
2022/12/20 10:51:11;;;;;;;11.63;3.85;;;;;;;-142.75;100.00;77097.88;5042879;28;20120;-66
2022/12/20 10:53:48;;;;;;;12.68;4.13;;;;;;;-142.75;100.00;77097.88;5042566;28;20033;-65
2022/12/20 10:56:35;;;;;;;8.35;3.97;;;;;;;-142.75;100.00;77097.88;5042612;28;20808;-65
2022/12/20 10:59:16;;;;;;;11.15;4.07;;;;;;;-142.75;100.00;77090.00;5042470;28;20056;-65
2022/12/20 11:01:46;;;;;;;8.13;4.43;;;;;;;-142.75;100.00;77099.84;5042606;28;20426;-66
2022/12/20 11:04:26;;;;;;;11.23;4.50;;;;;;;-142.75;100.00;77078.19;5042267;28;20090;-65
2022/12/20 11:06:53;;;;;;;7.82;4.22;;;;;;;-142.75;100.00;77101.81;5041846;28;20478;-65
2022/12/20 11:09:18;;;;;;;9.77;4.80;;;;;;;-142.75;100.00;77086.06;5042337;28;20032;-66
2022/12/20 11:12:01;;;;;;;7.33;3.57;;;;;;;-142.75;100.00;77086.06;5042628;28;20033;-66
2022/12/20 11:14:28;;;;;;;6.43;3.88;;;;;;;-142.75;100.00;77082.13;5041734;28;20380;-66
2022/12/20 11:16:55;;;;;;;11.00;4.25;;;;;;;-142.75;100.00;77084.09;5041844;28;20031;-66
2022/12/20 11:19:36;;;;;;;8.70;4.40;;;;;;;-142.75;100.00;77090.00;5042202;28;20834;-65
2022/12/20 11:22:20;;;;;;;11.57;4.30;;;;;;;-142.75;100.00;77090.00;5042216;28;20040;-66
2022/12/20 11:25:07;;;;;;;10.23;4.10;;;;;;;-142.75;100.00;77082.13;5024549;28;20140;-66
2022/12/20 11:27:35;;;;;;;9.88;4.18;;;;;;;-142.75;100.00;77076.22;5041283;28;20774;-66